DLH14A EDDF-EHAM
Flight info
| Callsign | DLH14A |
|---|---|
| Flight time | 0h 52m |
| Altitude | 24000 |
| Route | MARUN8M/25C MARUN Y152 ARPEG/N0410F340 Z850 ABILU DCT NORKU |
| Aircraft | A20N/M-SDE2E3FGHIRWXY/LB1 |
Departure
| Time | 2026-05-07 15:01 |
|---|---|
| Airport | Frankfurt Main Airport (EDDF) |
Arrival
| Time | 2026-05-07 15:54 |
|---|---|
| Airport | Amsterdam Airport Schiphol (EHAM) |
| Time | Latitude | Longitude | Altitude | Speed | Heading |
|---|---|---|---|---|---|
| 2026-05-07 14:33 | 50.04752 | 8.56886 | 363 ft | 0 kts | 294° |
| 2026-05-07 14:48 | 50.04751 | 8.56888 | 360 ft | 1 kts | 295° |
| 2026-05-07 14:48 | 50.04749 | 8.56896 | 360 ft | 1 kts | 288° |
| 2026-05-07 14:49 | 50.04747 | 8.56905 | 360 ft | 1 kts | 290° |
| 2026-05-07 14:49 | 50.04745 | 8.56913 | 365 ft | 2 kts | 283° |
| 2026-05-07 14:49 | 50.04744 | 8.56923 | 362 ft | 1 kts | 275° |
| 2026-05-07 14:49 | 50.04744 | 8.56950 | 365 ft | 2 kts | 253° |
| 2026-05-07 14:50 | 50.04752 | 8.56977 | 363 ft | 3 kts | 232° |
| 2026-05-07 14:50 | 50.04757 | 8.56987 | 361 ft | 1 kts | 224° |
| 2026-05-07 14:50 | 50.04781 | 8.57010 | 360 ft | 1 kts | 209° |
| 2026-05-07 14:56 | 50.04780 | 8.57010 | 360 ft | 1 kts | 209° |
| 2026-05-07 14:56 | 50.04762 | 8.57001 | 362 ft | 6 kts | 197° |
| 2026-05-07 14:56 | 50.04672 | 8.56953 | 364 ft | 15 kts | 203° |
| 2026-05-07 14:56 | 50.04571 | 8.56898 | 360 ft | 18 kts | 193° |
| 2026-05-07 14:57 | 50.04521 | 8.56881 | 360 ft | 8 kts | 192° |
| 2026-05-07 14:57 | 50.04450 | 8.56859 | 360 ft | 1 kts | 190° |
| 2026-05-07 14:57 | 50.04365 | 8.56834 | 366 ft | 23 kts | 195° |
| 2026-05-07 14:57 | 50.04280 | 8.56911 | 367 ft | 11 kts | 74° |
| 2026-05-07 14:58 | 50.04309 | 8.57032 | 365 ft | 14 kts | 72° |
| 2026-05-07 14:58 | 50.04341 | 8.57178 | 365 ft | 11 kts | 70° |
| 2026-05-07 14:58 | 50.04342 | 8.57184 | 367 ft | 1 kts | 69° |
| 2026-05-07 14:58 | 50.04373 | 8.57295 | 368 ft | 36 kts | 67° |
| 2026-05-07 14:59 | 50.04412 | 8.57503 | 365 ft | 10 kts | 63° |
| 2026-05-07 14:59 | 50.04417 | 8.57607 | 367 ft | 0 kts | 118° |
| 2026-05-07 14:59 | 50.04416 | 8.57608 | 367 ft | 1 kts | 118° |
| 2026-05-07 14:59 | 50.04349 | 8.57721 | 364 ft | 23 kts | 157° |
| 2026-05-07 15:00 | 50.04281 | 8.57698 | 364 ft | 8 kts | 230° |
| 2026-05-07 15:00 | 50.04280 | 8.57694 | 362 ft | 0 kts | 239° |
| 2026-05-07 15:01 | 50.04200 | 8.57385 | 366 ft | 87 kts | 249° |
| 2026-05-07 15:01 | 50.03860 | 8.55997 | 390 ft | 178 kts | 248° |
| 2026-05-07 15:01 | 50.03396 | 8.54044 | 1341 ft | 198 kts | 249° |
| 2026-05-07 15:02 | 50.02927 | 8.52135 | 2713 ft | 164 kts | 251° |
| 2026-05-07 15:02 | 50.02543 | 8.50659 | 2940 ft | 140 kts | 242° |
| 2026-05-07 15:02 | 50.01825 | 8.49664 | 2765 ft | 144 kts | 202° |
| 2026-05-07 15:02 | 50.00865 | 8.49222 | 2595 ft | 144 kts | 197° |
| 2026-05-07 15:03 | 49.99911 | 8.48798 | 2461 ft | 143 kts | 197° |
| 2026-05-07 15:03 | 49.98951 | 8.48369 | 2323 ft | 143 kts | 197° |
| 2026-05-07 15:03 | 49.97990 | 8.47938 | 2197 ft | 142 kts | 197° |
| 2026-05-07 15:03 | 49.97085 | 8.47535 | 2227 ft | 130 kts | 197° |
| 2026-05-07 15:04 | 49.96132 | 8.47096 | 1807 ft | 164 kts | 198° |
| 2026-05-07 15:04 | 49.94805 | 8.46386 | 2243 ft | 229 kts | 199° |
| 2026-05-07 15:04 | 49.93216 | 8.45641 | 3640 ft | 239 kts | 199° |
| 2026-05-07 15:04 | 49.91793 | 8.44376 | 5267 ft | 236 kts | 226° |
| 2026-05-07 15:05 | 49.90929 | 8.42217 | 6516 ft | 242 kts | 253° |
| 2026-05-07 15:05 | 49.90799 | 8.39622 | 7212 ft | 246 kts | 277° |
| 2026-05-07 15:05 | 49.91357 | 8.37116 | 7613 ft | 249 kts | 304° |
| 2026-05-07 15:05 | 49.92644 | 8.35332 | 7846 ft | 251 kts | 333° |
| 2026-05-07 15:06 | 49.94289 | 8.34372 | 8035 ft | 268 kts | 339° |
| 2026-05-07 15:06 | 49.96074 | 8.33351 | 8392 ft | 273 kts | 338° |
| 2026-05-07 15:06 | 49.97837 | 8.32276 | 8779 ft | 276 kts | 337° |
| 2026-05-07 15:06 | 49.99613 | 8.31141 | 9183 ft | 279 kts | 336° |
| 2026-05-07 15:07 | 50.01403 | 8.29969 | 9575 ft | 280 kts | 336° |
| 2026-05-07 15:07 | 50.03208 | 8.28796 | 9974 ft | 282 kts | 339° |
| 2026-05-07 15:07 | 50.05178 | 8.28296 | 10348 ft | 306 kts | 0° |
| 2026-05-07 15:07 | 50.07378 | 8.29017 | 10735 ft | 333 kts | 16° |
| 2026-05-07 15:08 | 50.09573 | 8.30165 | 11101 ft | 338 kts | 18° |
| 2026-05-07 15:08 | 50.11811 | 8.31381 | 11479 ft | 340 kts | 18° |
| 2026-05-07 15:08 | 50.14056 | 8.32594 | 11861 ft | 342 kts | 18° |
| 2026-05-07 15:08 | 50.16298 | 8.33790 | 12235 ft | 325 kts | 17° |
| 2026-05-07 15:09 | 50.18313 | 8.34859 | 12605 ft | 292 kts | 17° |
| 2026-05-07 15:09 | 50.20125 | 8.35815 | 12973 ft | 260 kts | 17° |
| 2026-05-07 15:09 | 50.21738 | 8.36663 | 13331 ft | 229 kts | 16° |
| 2026-05-07 15:09 | 50.23161 | 8.37410 | 13569 ft | 205 kts | 16° |
| 2026-05-07 15:10 | 50.24507 | 8.38112 | 13269 ft | 206 kts | 16° |
| 2026-05-07 15:10 | 50.25871 | 8.38821 | 12999 ft | 206 kts | 16° |
| 2026-05-07 15:10 | 50.27238 | 8.39535 | 12749 ft | 205 kts | 16° |
| 2026-05-07 15:10 | 50.28579 | 8.40239 | 12487 ft | 205 kts | 16° |
| 2026-05-07 15:11 | 50.29933 | 8.40955 | 12260 ft | 204 kts | 17° |
| 2026-05-07 15:11 | 50.31255 | 8.41671 | 12027 ft | 203 kts | 17° |
| 2026-05-07 15:11 | 50.32589 | 8.42402 | 11796 ft | 202 kts | 17° |
| 2026-05-07 15:11 | 50.33975 | 8.43155 | 11709 ft | 236 kts | 17° |
| 2026-05-07 15:12 | 50.35680 | 8.44074 | 12081 ft | 278 kts | 17° |
| 2026-05-07 15:12 | 50.37630 | 8.45133 | 12649 ft | 311 kts | 18° |
| 2026-05-07 15:12 | 50.39747 | 8.46289 | 13222 ft | 340 kts | 18° |
| 2026-05-07 15:12 | 50.42083 | 8.47569 | 13794 ft | 365 kts | 18° |
| 2026-05-07 15:13 | 50.44518 | 8.48905 | 14398 ft | 384 kts | 18° |
| 2026-05-07 15:13 | 50.47100 | 8.50322 | 15025 ft | 400 kts | 18° |
| 2026-05-07 15:13 | 50.49799 | 8.51737 | 15654 ft | 414 kts | 16° |
| 2026-05-07 15:13 | 50.52603 | 8.53073 | 16297 ft | 426 kts | 15° |
| 2026-05-07 15:14 | 50.55444 | 8.54393 | 16942 ft | 436 kts | 15° |
| 2026-05-07 15:14 | 50.58389 | 8.55770 | 17620 ft | 444 kts | 16° |
| 2026-05-07 15:14 | 50.61368 | 8.57181 | 18345 ft | 450 kts | 16° |
| 2026-05-07 15:14 | 50.64391 | 8.58626 | 18959 ft | 454 kts | 16° |
| 2026-05-07 15:15 | 50.67397 | 8.60071 | 19580 ft | 457 kts | 16° |
| 2026-05-07 15:15 | 50.70465 | 8.61550 | 20223 ft | 461 kts | 16° |
| 2026-05-07 15:15 | 50.73557 | 8.63037 | 20863 ft | 466 kts | 15° |
| 2026-05-07 15:15 | 50.76760 | 8.63975 | 21519 ft | 468 kts | 4° |
| 2026-05-07 15:16 | 50.79988 | 8.63872 | 22182 ft | 470 kts | 352° |
| 2026-05-07 15:16 | 50.83176 | 8.62719 | 22865 ft | 471 kts | 340° |
| 2026-05-07 15:16 | 50.86167 | 8.60542 | 23561 ft | 472 kts | 328° |
| 2026-05-07 15:16 | 50.88816 | 8.57489 | 23901 ft | 475 kts | 317° |
| 2026-05-07 15:17 | 50.91055 | 8.53626 | 24027 ft | 473 kts | 306° |
| 2026-05-07 15:17 | 50.92872 | 8.49279 | 24050 ft | 473 kts | 301° |
| 2026-05-07 15:17 | 50.94626 | 8.44966 | 24049 ft | 473 kts | 303° |
| 2026-05-07 15:17 | 50.96542 | 8.40686 | 24047 ft | 473 kts | 306° |
| 2026-05-07 15:18 | 50.98563 | 8.36570 | 24048 ft | 473 kts | 309° |
| 2026-05-07 15:18 | 51.00841 | 8.32784 | 24052 ft | 474 kts | 316° |
| 2026-05-07 15:18 | 51.03407 | 8.29455 | 24053 ft | 475 kts | 323° |
| 2026-05-07 15:18 | 51.06196 | 8.26592 | 24052 ft | 476 kts | 329° |
| 2026-05-07 15:19 | 51.09058 | 8.24069 | 24055 ft | 476 kts | 330° |
| 2026-05-07 15:19 | 51.11955 | 8.21491 | 24057 ft | 476 kts | 329° |
| 2026-05-07 15:19 | 51.14868 | 8.18888 | 24059 ft | 477 kts | 329° |
| 2026-05-07 15:19 | 51.17730 | 8.16329 | 24057 ft | 477 kts | 329° |
| 2026-05-07 15:20 | 51.20631 | 8.13733 | 24059 ft | 477 kts | 329° |
| 2026-05-07 15:20 | 51.23508 | 8.11158 | 24061 ft | 477 kts | 329° |
| 2026-05-07 15:20 | 51.26415 | 8.08553 | 24058 ft | 478 kts | 329° |
| 2026-05-07 15:20 | 51.29299 | 8.05964 | 24062 ft | 478 kts | 329° |
| 2026-05-07 15:21 | 51.32217 | 8.03342 | 24059 ft | 478 kts | 329° |
| 2026-05-07 15:21 | 51.35106 | 8.00743 | 24063 ft | 478 kts | 329° |
| 2026-05-07 15:21 | 51.38015 | 7.98122 | 24064 ft | 478 kts | 329° |
| 2026-05-07 15:21 | 51.40892 | 7.95429 | 24067 ft | 478 kts | 326° |
| 2026-05-07 15:22 | 51.43574 | 7.92356 | 24068 ft | 477 kts | 322° |
| 2026-05-07 15:22 | 51.46247 | 7.89160 | 24071 ft | 478 kts | 322° |
| 2026-05-07 15:22 | 51.48915 | 7.85991 | 24071 ft | 478 kts | 322° |
| 2026-05-07 15:22 | 51.51624 | 7.82775 | 24073 ft | 484 kts | 322° |
| 2026-05-07 15:23 | 51.54305 | 7.79581 | 24073 ft | 485 kts | 322° |
| 2026-05-07 15:23 | 51.57014 | 7.76345 | 24076 ft | 484 kts | 322° |
| 2026-05-07 15:23 | 51.59720 | 7.73106 | 24078 ft | 482 kts | 322° |
| 2026-05-07 15:23 | 51.62442 | 7.69840 | 24079 ft | 491 kts | 322° |
| 2026-05-07 15:24 | 51.65148 | 7.66587 | 24076 ft | 488 kts | 322° |
| 2026-05-07 15:24 | 51.67857 | 7.63328 | 24072 ft | 485 kts | 322° |
| 2026-05-07 15:24 | 51.70578 | 7.60049 | 24073 ft | 485 kts | 322° |
| 2026-05-07 15:24 | 51.73253 | 7.56820 | 24069 ft | 485 kts | 322° |
| 2026-05-07 15:25 | 51.75057 | 7.54640 | 24066 ft | 485 kts | 322° |
| 2026-05-07 15:25 | 51.77770 | 7.51356 | 24067 ft | 484 kts | 322° |
| 2026-05-07 15:25 | 51.80437 | 7.48122 | 24066 ft | 485 kts | 322° |
| 2026-05-07 15:25 | 51.84027 | 7.43763 | 24065 ft | 484 kts | 322° |
| 2026-05-07 15:26 | 51.85824 | 7.41578 | 24071 ft | 485 kts | 322° |
| 2026-05-07 15:26 | 51.88531 | 7.38282 | 24072 ft | 484 kts | 322° |
| 2026-05-07 15:26 | 51.92104 | 7.33924 | 24070 ft | 485 kts | 322° |
| 2026-05-07 15:26 | 51.93901 | 7.31729 | 24063 ft | 484 kts | 322° |
| 2026-05-07 15:27 | 51.96586 | 7.28444 | 24060 ft | 484 kts | 322° |
| 2026-05-07 15:27 | 51.99279 | 7.25144 | 24067 ft | 484 kts | 322° |
| 2026-05-07 15:27 | 52.01979 | 7.21831 | 24067 ft | 487 kts | 322° |
| 2026-05-07 15:27 | 52.04717 | 7.18465 | 24064 ft | 495 kts | 322° |
| 2026-05-07 15:28 | 52.07461 | 7.15087 | 24059 ft | 499 kts | 322° |
| 2026-05-07 15:28 | 52.10212 | 7.11696 | 24056 ft | 501 kts | 322° |
| 2026-05-07 15:28 | 52.13004 | 7.08249 | 24063 ft | 502 kts | 322° |
| 2026-05-07 15:28 | 52.15805 | 7.04784 | 24058 ft | 503 kts | 321° |
| 2026-05-07 15:29 | 52.18561 | 7.01364 | 24219 ft | 499 kts | 321° |
| 2026-05-07 15:29 | 52.21163 | 6.97697 | 24946 ft | 487 kts | 315° |
| 2026-05-07 15:29 | 52.23361 | 6.93599 | 25413 ft | 484 kts | 304° |
| 2026-05-07 15:29 | 52.25029 | 6.88912 | 25727 ft | 483 kts | 293° |
| 2026-05-07 15:30 | 52.26179 | 6.83725 | 26109 ft | 481 kts | 286° |
| 2026-05-07 15:30 | 52.27112 | 6.78434 | 26492 ft | 480 kts | 285° |
| 2026-05-07 15:30 | 52.28029 | 6.73239 | 26869 ft | 479 kts | 285° |
| 2026-05-07 15:30 | 52.29004 | 6.68030 | 27264 ft | 478 kts | 286° |
| 2026-05-07 15:31 | 52.30016 | 6.62881 | 27659 ft | 477 kts | 287° |
| 2026-05-07 15:31 | 52.31060 | 6.57697 | 28068 ft | 476 kts | 287° |
| 2026-05-07 15:31 | 52.32090 | 6.52637 | 28437 ft | 468 kts | 287° |
| 2026-05-07 15:31 | 52.33088 | 6.47750 | 28478 ft | 432 kts | 287° |
| 2026-05-07 15:32 | 52.34011 | 6.43225 | 28186 ft | 405 kts | 287° |
| 2026-05-07 15:32 | 52.34867 | 6.39007 | 27668 ft | 387 kts | 287° |
| 2026-05-07 15:32 | 52.35702 | 6.34871 | 27070 ft | 379 kts | 287° |
| 2026-05-07 15:32 | 52.36520 | 6.30810 | 26140 ft | 374 kts | 287° |
| 2026-05-07 15:33 | 52.37336 | 6.26744 | 24967 ft | 377 kts | 287° |
| 2026-05-07 15:33 | 52.38152 | 6.22675 | 23780 ft | 381 kts | 287° |
| 2026-05-07 15:33 | 52.38979 | 6.18540 | 22425 ft | 383 kts | 287° |
| 2026-05-07 15:33 | 52.39813 | 6.14371 | 21089 ft | 383 kts | 287° |
| 2026-05-07 15:34 | 52.40633 | 6.10262 | 19832 ft | 382 kts | 287° |
| 2026-05-07 15:34 | 52.41461 | 6.06098 | 18466 ft | 382 kts | 288° |
| 2026-05-07 15:34 | 52.42277 | 6.01992 | 16885 ft | 384 kts | 288° |
| 2026-05-07 15:34 | 52.43106 | 5.97812 | 15348 ft | 384 kts | 287° |
| 2026-05-07 15:35 | 52.43929 | 5.93657 | 13883 ft | 382 kts | 287° |
| 2026-05-07 15:35 | 52.44747 | 5.89514 | 12282 ft | 379 kts | 287° |
| 2026-05-07 15:35 | 52.45548 | 5.85451 | 10814 ft | 375 kts | 287° |
| 2026-05-07 15:35 | 52.46345 | 5.81394 | 9613 ft | 365 kts | 287° |
| 2026-05-07 15:36 | 52.47105 | 5.77520 | 8657 ft | 349 kts | 287° |
| 2026-05-07 15:36 | 52.47835 | 5.73791 | 7775 ft | 336 kts | 287° |
| 2026-05-07 15:36 | 52.48528 | 5.70246 | 7307 ft | 314 kts | 287° |
| 2026-05-07 15:36 | 52.49158 | 5.67017 | 7134 ft | 287 kts | 287° |
| 2026-05-07 15:37 | 52.49744 | 5.64015 | 7074 ft | 260 kts | 287° |
| 2026-05-07 15:37 | 52.50289 | 5.61214 | 7077 ft | 264 kts | 287° |
| 2026-05-07 15:37 | 52.50691 | 5.58322 | 7076 ft | 259 kts | 270° |
| 2026-05-07 15:37 | 52.50346 | 5.55427 | 7075 ft | 259 kts | 250° |
| 2026-05-07 15:38 | 52.49747 | 5.52677 | 7074 ft | 258 kts | 249° |
| 2026-05-07 15:38 | 52.49116 | 5.49909 | 7080 ft | 258 kts | 249° |
| 2026-05-07 15:38 | 52.48494 | 5.47115 | 7075 ft | 259 kts | 249° |
| 2026-05-07 15:38 | 52.47893 | 5.44327 | 7074 ft | 258 kts | 250° |
| 2026-05-07 15:39 | 52.47302 | 5.41527 | 7082 ft | 279 kts | 250° |
| 2026-05-07 15:39 | 52.46635 | 5.38346 | 7077 ft | 298 kts | 250° |
| 2026-05-07 15:39 | 52.45960 | 5.35101 | 7079 ft | 301 kts | 250° |
| 2026-05-07 15:39 | 52.45290 | 5.31888 | 7075 ft | 301 kts | 250° |
| 2026-05-07 15:40 | 52.44607 | 5.28624 | 7075 ft | 301 kts | 250° |
| 2026-05-07 15:40 | 52.43928 | 5.25380 | 7073 ft | 300 kts | 250° |
| 2026-05-07 15:40 | 52.43255 | 5.22175 | 7073 ft | 300 kts | 250° |
| 2026-05-07 15:40 | 52.42571 | 5.18926 | 7073 ft | 300 kts | 250° |
| 2026-05-07 15:41 | 52.41894 | 5.15717 | 7074 ft | 300 kts | 250° |
| 2026-05-07 15:41 | 52.41215 | 5.12501 | 7070 ft | 300 kts | 250° |
| 2026-05-07 15:41 | 52.40528 | 5.09254 | 7072 ft | 300 kts | 250° |
| 2026-05-07 15:41 | 52.39849 | 5.06049 | 7074 ft | 300 kts | 250° |
| 2026-05-07 15:42 | 52.39171 | 5.02820 | 7074 ft | 299 kts | 252° |
| 2026-05-07 15:42 | 52.38783 | 4.99446 | 7075 ft | 300 kts | 262° |
| 2026-05-07 15:42 | 52.38551 | 4.96088 | 7073 ft | 300 kts | 262° |
| 2026-05-07 15:42 | 52.38315 | 4.92676 | 7078 ft | 300 kts | 262° |
| 2026-05-07 15:43 | 52.38080 | 4.89299 | 7074 ft | 301 kts | 262° |
| 2026-05-07 15:43 | 52.37844 | 4.85880 | 7074 ft | 301 kts | 262° |
| 2026-05-07 15:43 | 52.37610 | 4.82481 | 7074 ft | 300 kts | 262° |
| 2026-05-07 15:43 | 52.37373 | 4.79066 | 7075 ft | 300 kts | 262° |
| 2026-05-07 15:44 | 52.37143 | 4.75722 | 7077 ft | 301 kts | 262° |
| 2026-05-07 15:44 | 52.36909 | 4.72306 | 7076 ft | 300 kts | 262° |
| 2026-05-07 15:44 | 52.36675 | 4.68906 | 7078 ft | 300 kts | 262° |
| 2026-05-07 15:44 | 52.36445 | 4.65501 | 7072 ft | 299 kts | 262° |
| 2026-05-07 15:45 | 52.36087 | 4.62174 | 7074 ft | 298 kts | 249° |
| 2026-05-07 15:45 | 52.35211 | 4.59103 | 7078 ft | 295 kts | 242° |
| 2026-05-07 15:45 | 52.34336 | 4.56210 | 7072 ft | 275 kts | 242° |
| 2026-05-07 15:45 | 52.33503 | 4.53451 | 7073 ft | 269 kts | 242° |
| 2026-05-07 15:46 | 52.31851 | 4.47960 | 6317 ft | 268 kts | 242° |
| 2026-05-07 15:46 | 52.31019 | 4.45197 | 5414 ft | 273 kts | 243° |
| 2026-05-07 15:46 | 52.30130 | 4.42387 | 4366 ft | 281 kts | 239° |
| 2026-05-07 15:47 | 52.28819 | 4.40061 | 3349 ft | 286 kts | 213° |
| 2026-05-07 15:47 | 52.26971 | 4.38911 | 2559 ft | 281 kts | 185° |
| 2026-05-07 15:47 | 52.25110 | 4.39285 | 2196 ft | 260 kts | 156° |
| 2026-05-07 15:47 | 52.23550 | 4.40470 | 2037 ft | 239 kts | 152° |
| 2026-05-07 15:48 | 52.22118 | 4.41578 | 2005 ft | 215 kts | 152° |
| 2026-05-07 15:48 | 52.20814 | 4.42593 | 1993 ft | 198 kts | 151° |
| 2026-05-07 15:48 | 52.19792 | 4.44109 | 2005 ft | 210 kts | 118° |
| 2026-05-07 15:48 | 52.19434 | 4.46278 | 1996 ft | 196 kts | 92° |
| 2026-05-07 15:49 | 52.19540 | 4.48409 | 2001 ft | 182 kts | 74° |
| 2026-05-07 15:49 | 52.19980 | 4.50305 | 2002 ft | 179 kts | 63° |
| 2026-05-07 15:49 | 52.20588 | 4.52087 | 2000 ft | 177 kts | 58° |
| 2026-05-07 15:49 | 52.21242 | 4.53804 | 1998 ft | 180 kts | 57° |
| 2026-05-07 15:50 | 52.21907 | 4.55531 | 2003 ft | 178 kts | 57° |
| 2026-05-07 15:50 | 52.22555 | 4.57195 | 2021 ft | 172 kts | 57° |
| 2026-05-07 15:50 | 52.23162 | 4.58787 | 2005 ft | 156 kts | 57° |
| 2026-05-07 15:50 | 52.23718 | 4.60234 | 1929 ft | 150 kts | 57° |
| 2026-05-07 15:51 | 52.24287 | 4.61711 | 1758 ft | 151 kts | 57° |
| 2026-05-07 15:51 | 52.24816 | 4.63089 | 1559 ft | 138 kts | 55° |
| 2026-05-07 15:51 | 52.25313 | 4.64383 | 1360 ft | 131 kts | 56° |
| 2026-05-07 15:51 | 52.25783 | 4.65600 | 1184 ft | 124 kts | 55° |
| 2026-05-07 15:52 | 52.26259 | 4.66832 | 1022 ft | 135 kts | 55° |
| 2026-05-07 15:52 | 52.26743 | 4.68097 | 831 ft | 126 kts | 56° |
| 2026-05-07 15:52 | 52.27213 | 4.69318 | 668 ft | 131 kts | 56° |
| 2026-05-07 15:52 | 52.27703 | 4.70569 | 433 ft | 128 kts | 55° |
| 2026-05-07 15:53 | 52.28197 | 4.71839 | 297 ft | 147 kts | 56° |
| 2026-05-07 15:53 | 52.28699 | 4.73167 | 101 ft | 133 kts | 57° |
| 2026-05-07 15:53 | 52.29163 | 4.74379 | 2 ft | 116 kts | 58° |
| 2026-05-07 15:53 | 52.29427 | 4.75078 | -4 ft | 50 kts | 59° |
| 2026-05-07 15:54 | 52.29514 | 4.75329 | -4 ft | 1 kts | 60° |
| 2026-05-07 15:54 | 52.29555 | 4.75347 | -3 ft | 23 kts | 12° |
| 2026-05-07 15:54 | 52.29650 | 4.75327 | -1 ft | 0 kts | 330° |
| 2026-05-07 15:54 | 52.29651 | 4.75327 | -1 ft | 0 kts | 332° |
| 2026-05-07 15:55 | 52.29663 | 4.75318 | -1 ft | 0 kts | 336° |
| 2026-05-07 15:55 | 52.29684 | 4.75303 | -1 ft | 12 kts | 336° |
| 2026-05-07 15:55 | 52.29762 | 4.75284 | 0 ft | 16 kts | 2° |
| 2026-05-07 15:55 | 52.29839 | 4.75369 | 0 ft | 15 kts | 41° |
| 2026-05-07 15:56 | 52.29907 | 4.75509 | -1 ft | 17 kts | 57° |
| 2026-05-07 15:56 | 52.29978 | 4.75690 | -3 ft | 22 kts | 58° |
| 2026-05-07 15:56 | 52.30035 | 4.75900 | -3 ft | 15 kts | 103° |
| 2026-05-07 15:56 | 52.30026 | 4.76064 | -4 ft | 16 kts | 56° |
| 2026-05-07 15:57 | 52.30097 | 4.76242 | -3 ft | 20 kts | 46° |
| 2026-05-07 15:57 | 52.30207 | 4.76293 | -1 ft | 14 kts | 40° |
| 2026-05-07 15:57 | 52.30271 | 4.76460 | -1 ft | 31 kts | 58° |
| 2026-05-07 15:57 | 52.30385 | 4.76491 | -2 ft | 18 kts | 333° |
| 2026-05-07 15:58 | 52.30450 | 4.76426 | -2 ft | 3 kts | 323° |
| 2026-05-07 15:58 | 52.30481 | 4.76390 | -3 ft | 21 kts | 326° |
| 2026-05-07 15:58 | 52.30486 | 4.76308 | -2 ft | 0 kts | 246° |